Time;durP1;ratioP1;P1;durP2;ratioP2;P2;SDS_P1;SDS_P2;PMS_P1;PMS_P2;Temp;Humidity;BMP_temperature;BMP_pressure;BME280_temperature;BME280_humidity;BME280_pressure;Samples;Min_cycle;Max_cycle;Signal;HPM_P1;HPM_P2
2022/03/25 00:01:25;;;;;;;7.63;6.78;;;6.00;99.90;;;;;;4998418;28;20072;-64
2022/03/25 00:03:53;;;;;;;15.13;7.85;;;6.00;99.90;;;;;;5004604;28;20053;-64
2022/03/25 00:06:21;;;;;;;10.63;7.88;;;5.90;99.90;;;;;;5006563;28;20056;-68
2022/03/25 00:08:48;;;;;;;7.93;7.05;;;5.80;99.90;;;;;;5010396;28;20175;-64
2022/03/25 00:11:15;;;;;;;8.27;6.78;;;5.80;99.90;;;;;;5001771;28;20498;-64
2022/03/25 00:13:42;;;;;;;16.42;8.18;;;5.70;99.90;;;;;;5003249;28;20050;-65
2022/03/25 00:16:09;;;;;;;10.95;8.88;;;5.70;99.90;;;;;;4992021;28;20451;-64
2022/03/25 00:18:36;;;;;;;11.20;8.50;;;5.70;99.90;;;;;;5000311;28;20108;-68
2022/03/25 00:21:03;;;;;;;16.73;9.13;;;5.90;99.90;;;;;;5008105;28;20136;-64
2022/03/25 00:23:30;;;;;;;14.88;10.93;;;6.00;99.90;;;;;;5007029;28;20721;-65
2022/03/25 00:25:57;;;;;;;11.55;9.18;;;6.10;99.90;;;;;;4999606;28;20472;-66
2022/03/25 00:28:24;;;;;;;15.85;9.90;;;6.20;99.90;;;;;;5002796;28;20050;-63
2022/03/25 00:30:51;;;;;;;16.00;9.15;;;6.40;99.90;;;;;;5003804;28;20064;-64
2022/03/25 00:33:19;;;;;;;12.25;8.50;;;6.60;99.90;;;;;;4999429;28;20054;-66
2022/03/25 00:35:46;;;;;;;18.60;9.52;;;6.80;99.90;;;;;;5003197;28;20099;-66
2022/03/25 00:38:13;;;;;;;21.25;11.75;;;7.00;99.90;;;;;;5003741;28;20129;-64
2022/03/25 00:40:40;;;;;;;15.95;9.13;;;7.20;99.90;;;;;;5001068;28;20723;-67
2022/03/25 00:43:07;;;;;;;9.80;7.80;;;7.40;99.90;;;;;;5005978;28;20088;-66
2022/03/25 00:45:35;;;;;;;13.93;8.48;;;7.30;99.90;;;;;;5002541;28;20046;-64
2022/03/25 00:48:03;;;;;;;20.58;8.52;;;7.40;99.90;;;;;;5007756;28;20526;-65
2022/03/25 00:50:30;;;;;;;11.48;8.27;;;7.30;99.90;;;;;;5002071;28;20077;-66
2022/03/25 00:52:57;;;;;;;13.98;9.38;;;7.20;99.90;;;;;;5002189;28;20054;-65
2022/03/25 00:55:25;;;;;;;16.45;8.52;;;7.20;99.90;;;;;;5000324;28;20140;-66
2022/03/25 00:57:52;;;;;;;16.55;8.80;;;7.10;99.90;;;;;;5002603;28;20172;-66
2022/03/25 01:00:20;;;;;;;16.13;8.88;;;7.20;99.90;;;;;;5001668;28;20080;-64
2022/03/25 01:02:47;;;;;;;16.10;7.97;;;7.20;99.90;;;;;;5008230;28;20088;-64
2022/03/25 01:05:14;;;;;;;14.13;9.57;;;7.10;99.90;;;;;;5001265;28;20046;-64
2022/03/25 01:07:40;;;;;;;16.40;9.68;;;7.00;99.90;;;;;;5004606;28;20116;-65
2022/03/25 01:10:07;;;;;;;16.13;8.05;;;6.90;99.90;;;;;;5006118;28;20100;-68
2022/03/25 01:12:34;;;;;;;15.00;9.00;;;6.80;99.90;;;;;;4998428;28;20622;-66
2022/03/25 01:15:02;;;;;;;13.35;8.98;;;6.70;99.90;;;;;;4997021;28;20161;-66
2022/03/25 01:17:29;;;;;;;11.55;9.13;;;6.60;99.90;;;;;;5001370;28;20128;-67
2022/03/25 01:19:56;;;;;;;12.63;8.40;;;6.50;99.90;;;;;;5007779;28;20058;-66
2022/03/25 01:22:23;;;;;;;12.48;8.52;;;6.40;99.90;;;;;;5002804;28;20058;-64
2022/03/25 01:24:50;;;;;;;13.32;9.43;;;6.30;99.90;;;;;;4999754;28;20175;-65
2022/03/25 01:27:17;;;;;;;13.50;8.30;;;6.20;99.90;;;;;;5004356;28;20053;-63
2022/03/25 01:29:44;;;;;;;13.55;7.10;;;6.20;99.90;;;;;;5001937;28;20085;-66
2022/03/25 01:32:12;;;;;;;11.25;8.52;;;6.10;99.90;;;;;;5003184;28;20157;-64
2022/03/25 01:34:39;;;;;;;14.95;10.50;;;6.10;99.90;;;;;;5004642;28;20531;-66
2022/03/25 01:37:06;;;;;;;14.13;8.70;;;6.10;99.90;;;;;;4998802;28;20161;-65
2022/03/25 01:39:33;;;;;;;15.55;8.60;;;6.00;99.90;;;;;;5000630;28;20605;-64
2022/03/25 01:42:00;;;;;;;13.02;7.97;;;5.90;99.90;;;;;;5001997;28;20137;-66
2022/03/25 01:44:29;;;;;;;9.88;8.88;;;5.90;99.90;;;;;;5002194;28;20097;-64
2022/03/25 01:46:59;;;;;;;15.98;9.18;;;5.80;99.90;;;;;;5001508;28;20925;-65
2022/03/25 01:49:26;;;;;;;14.50;9.10;;;5.80;99.90;;;;;;5002224;28;20111;-72
2022/03/25 01:51:56;;;;;;;13.32;9.35;;;5.80;99.90;;;;;;5002993;28;20426;-64
2022/03/25 01:54:25;;;;;;;14.70;10.60;;;5.80;99.90;;;;;;5003377;28;20164;-66
2022/03/25 01:57:01;;;;;;;19.77;9.32;;;5.80;99.90;;;;;;4995758;28;20495;-64
2022/03/25 01:59:29;;;;;;;11.07;9.05;;;5.80;99.90;;;;;;4999165;28;20061;-67
2022/03/25 02:01:56;;;;;;;12.85;8.93;;;5.80;99.90;;;;;;4996499;28;20528;-66
2022/03/25 02:04:24;;;;;;;15.43;9.05;;;5.70;99.90;;;;;;5003465;28;20129;-66
2022/03/25 02:06:52;;;;;;;12.93;9.80;;;5.70;99.90;;;;;;5011442;28;20177;-66
2022/03/25 02:09:21;;;;;;;13.25;10.07;;;5.70;99.90;;;;;;5001885;28;20045;-65
2022/03/25 02:11:48;;;;;;;14.20;9.82;;;5.70;99.90;;;;;;5009223;28;20096;-66
2022/03/25 02:14:18;;;;;;;13.25;9.48;;;5.70;99.90;;;;;;5011907;28;20144;-66
2022/03/25 02:16:48;;;;;;;14.05;9.43;;;5.70;99.90;;;;;;5006346;28;20134;-64
2022/03/25 02:19:18;;;;;;;17.88;10.57;;;5.70;99.90;;;;;;5008832;28;20403;-65
2022/03/25 02:21:49;;;;;;;11.70;8.93;;;5.70;99.90;;;;;;5003111;28;20124;-64
2022/03/25 02:24:21;;;;;;;15.23;9.40;;;5.70;99.90;;;;;;5002973;28;20049;-67
2022/03/25 02:26:49;;;;;;;13.57;11.13;;;5.70;99.90;;;;;;5012245;28;20053;-66
2022/03/25 02:29:17;;;;;;;13.63;10.30;;;5.70;99.90;;;;;;5007114;28;20538;-67
2022/03/25 02:31:44;;;;;;;16.38;9.80;;;5.60;99.90;;;;;;5016225;28;20064;-64
2022/03/25 02:34:12;;;;;;;13.82;9.52;;;5.70;99.90;;;;;;5006900;28;20054;-64
2022/03/25 02:36:43;;;;;;;12.15;10.60;;;5.60;99.90;;;;;;5006288;28;20054;-64
2022/03/25 02:39:13;;;;;;;16.80;9.40;;;5.60;99.90;;;;;;4997152;28;20116;-64
2022/03/25 02:41:41;;;;;;;14.45;10.27;;;5.50;99.90;;;;;;4998745;28;20165;-65
2022/03/25 02:44:10;;;;;;;18.35;9.60;;;5.50;99.90;;;;;;4996713;28;20399;-69
2022/03/25 02:46:41;;;;;;;16.95;10.18;;;5.40;99.90;;;;;;5001170;28;20057;-67
2022/03/25 02:49:09;;;;;;;19.45;10.77;;;5.40;99.90;;;;;;5000592;28;20473;-66
2022/03/25 02:51:36;;;;;;;15.18;9.93;;;5.30;99.90;;;;;;5005581;28;20081;-65
2022/03/25 02:54:03;;;;;;;19.50;10.38;;;5.30;99.90;;;;;;5003690;28;20160;-65
2022/03/25 02:56:30;;;;;;;19.23;9.98;;;5.30;99.90;;;;;;5004186;28;20260;-65
2022/03/25 02:58:57;;;;;;;14.65;10.88;;;5.30;99.90;;;;;;5009992;28;20184;-64
2022/03/25 03:01:25;;;;;;;14.82;11.07;;;5.20;99.90;;;;;;5009374;28;20060;-66
2022/03/25 03:03:53;;;;;;;16.20;10.23;;;5.20;99.90;;;;;;4999606;28;20050;-66
2022/03/25 03:06:20;;;;;;;13.90;10.13;;;5.10;99.90;;;;;;5004843;28;20141;-64
2022/03/25 03:08:47;;;;;;;15.63;10.85;;;5.10;99.90;;;;;;5006992;28;20046;-67
2022/03/25 03:11:14;;;;;;;14.55;9.60;;;5.10;99.90;;;;;;5003095;28;20146;-66
2022/03/25 03:13:40;;;;;;;20.65;10.88;;;5.10;99.90;;;;;;5008912;28;20757;-64
2022/03/25 03:16:09;;;;;;;20.92;10.98;;;5.10;99.90;;;;;;5004172;28;20109;-67
2022/03/25 03:18:36;;;;;;;27.67;11.88;;;5.10;99.90;;;;;;5008882;28;20152;-65
2022/03/25 03:21:02;;;;;;;18.55;10.93;;;5.10;99.90;;;;;;5006595;28;20544;-64
2022/03/25 03:23:30;;;;;;;20.30;11.77;;;5.10;99.90;;;;;;5003081;28;20057;-66
2022/03/25 03:25:56;;;;;;;13.80;10.40;;;5.00;99.90;;;;;;5004769;28;20046;-66
2022/03/25 03:28:23;;;;;;;17.73;10.43;;;5.00;99.90;;;;;;5004792;28;20115;-64
2022/03/25 03:30:51;;;;;;;16.13;9.93;;;5.00;99.90;;;;;;5004439;28;20061;-68
2022/03/25 03:33:18;;;;;;;14.48;10.15;;;4.90;99.90;;;;;;4994267;28;20049;-64
2022/03/25 03:35:45;;;;;;;17.33;12.65;;;4.90;99.90;;;;;;5006175;28;20068;-65
2022/03/25 03:38:13;;;;;;;18.38;12.23;;;4.90;99.90;;;;;;5005775;28;20045;-67
2022/03/25 03:40:40;;;;;;;19.27;11.63;;;4.90;99.90;;;;;;5004041;28;20057;-65
2022/03/25 03:43:07;;;;;;;20.60;11.75;;;5.00;99.90;;;;;;5005926;28;20145;-66
2022/03/25 03:45:34;;;;;;;17.63;12.18;;;4.90;99.90;;;;;;5004211;28;20161;-65
2022/03/25 03:48:01;;;;;;;16.77;12.10;;;4.90;99.90;;;;;;5004172;28;20668;-65
2022/03/25 03:50:27;;;;;;;18.85;11.45;;;4.80;99.90;;;;;;5004355;28;20700;-65
2022/03/25 03:52:54;;;;;;;24.05;12.05;;;4.80;99.90;;;;;;5004735;28;20053;-63
2022/03/25 03:55:21;;;;;;;18.75;12.13;;;4.80;99.90;;;;;;5000698;28;20145;-65
2022/03/25 03:58:07;;;;;;;15.27;12.50;;;4.80;99.90;;;;;;5008425;28;20075;-64
2022/03/25 04:00:34;;;;;;;31.48;12.50;;;4.80;99.90;;;;;;5005313;28;20137;-66
2022/03/25 04:03:01;;;;;;;17.05;12.50;;;4.80;99.90;;;;;;5004238;28;20077;-64
2022/03/25 04:05:28;;;;;;;17.83;11.77;;;4.80;99.90;;;;;;5000132;28;20052;-65
2022/03/25 04:07:55;;;;;;;18.10;13.43;;;4.70;99.90;;;;;;5005880;28;20058;-64
2022/03/25 04:10:22;;;;;;;19.17;12.85;;;4.70;99.90;;;;;;5002524;28;20072;-64
2022/03/25 04:12:49;;;;;;;15.77;12.07;;;4.70;99.90;;;;;;5005677;28;20054;-63
2022/03/25 04:15:16;;;;;;;20.80;12.20;;;4.70;99.90;;;;;;5002724;28;20132;-64
2022/03/25 04:17:44;;;;;;;19.88;11.93;;;4.70;99.90;;;;;;4995527;28;20089;-64
2022/03/25 04:20:14;;;;;;;19.38;11.75;;;4.70;99.90;;;;;;5006523;28;20515;-66
2022/03/25 04:22:45;;;;;;;28.23;13.75;;;4.60;99.90;;;;;;5006246;28;20403;-69
2022/03/25 04:25:13;;;;;;;18.77;11.25;;;4.60;99.90;;;;;;5002264;28;20046;-64
2022/03/25 04:28:06;;;;;;;16.33;12.95;;;4.70;99.90;;;;;;4999941;28;20051;-68
2022/03/25 04:30:35;;;;;;;18.10;11.75;;;4.60;99.90;;;;;;5005288;28;20063;-63
2022/03/25 04:33:04;;;;;;;15.55;12.65;;;4.60;99.90;;;;;;5008495;28;20069;-66
2022/03/25 04:35:32;;;;;;;18.55;12.38;;;4.70;99.90;;;;;;5005345;28;20045;-65
2022/03/25 04:38:00;;;;;;;17.85;12.63;;;4.70;99.90;;;;;;5007246;28;20073;-64
2022/03/25 04:40:29;;;;;;;19.13;13.95;;;4.70;99.90;;;;;;5002111;28;20053;-64
2022/03/25 04:42:58;;;;;;;21.52;12.25;;;4.70;99.90;;;;;;5008907;28;20137;-64
2022/03/25 04:45:26;;;;;;;18.55;13.35;;;4.70;99.90;;;;;;5001645;28;20133;-65
2022/03/25 04:47:54;;;;;;;14.45;11.80;;;4.70;99.90;;;;;;5001420;28;20077;-64
2022/03/25 04:50:22;;;;;;;19.00;12.30;;;4.70;99.90;;;;;;5002056;28;20049;-66
2022/03/25 04:52:49;;;;;;;20.23;13.32;;;4.70;99.90;;;;;;5006405;28;20042;-63
2022/03/25 04:55:17;;;;;;;23.15;13.07;;;4.70;99.90;;;;;;4999284;28;20385;-64
2022/03/25 04:57:45;;;;;;;22.45;13.25;;;4.70;99.90;;;;;;4999239;28;20709;-66
2022/03/25 05:00:12;;;;;;;24.60;12.43;;;4.70;99.90;;;;;;5002131;28;20216;-65
2022/03/25 05:02:39;;;;;;;26.20;14.93;;;4.70;99.90;;;;;;5001283;28;20081;-64
2022/03/25 05:05:07;;;;;;;22.35;13.07;;;4.70;99.90;;;;;;4999542;28;20077;-66
2022/03/25 05:07:34;;;;;;;18.20;12.85;;;4.70;99.90;;;;;;5005327;28;20089;-67
2022/03/25 05:10:02;;;;;;;22.35;12.68;;;4.70;99.90;;;;;;4998542;28;20049;-64
2022/03/25 05:12:30;;;;;;;20.52;14.00;;;4.60;99.90;;;;;;5002149;28;20053;-64
2022/03/25 05:14:57;;;;;;;21.42;13.88;;;4.70;99.90;;;;;;5003717;28;20137;-68
2022/03/25 05:17:25;;;;;;;20.73;12.52;;;4.70;99.90;;;;;;5000563;28;20073;-65
2022/03/25 05:19:54;;;;;;;27.98;14.77;;;4.70;99.90;;;;;;4997649;28;20057;-66
2022/03/25 05:22:22;;;;;;;23.17;13.27;;;4.70;99.90;;;;;;5000309;28;20790;-68
2022/03/25 05:24:49;;;;;;;19.55;14.30;;;4.60;99.90;;;;;;4994570;28;20566;-63
2022/03/25 05:27:19;;;;;;;22.70;12.82;;;4.60;99.90;;;;;;5002993;28;20042;-64
2022/03/25 05:29:46;;;;;;;22.27;13.52;;;4.60;99.90;;;;;;5001329;28;20492;-68
2022/03/25 05:32:13;;;;;;;21.40;12.65;;;4.70;99.90;;;;;;5001654;28;20516;-64
2022/03/25 05:34:40;;;;;;;23.23;14.63;;;4.70;99.90;;;;;;5006252;28;20136;-65
2022/03/25 05:37:07;;;;;;;19.05;12.68;;;4.70;99.90;;;;;;5001868;28;20494;-64
2022/03/25 05:39:34;;;;;;;23.77;13.45;;;4.70;99.90;;;;;;4999722;28;20050;-65
2022/03/25 05:42:01;;;;;;;20.52;14.35;;;4.70;99.90;;;;;;5000255;28;20149;-64
2022/03/25 05:44:28;;;;;;;21.80;14.07;;;4.70;99.90;;;;;;5003029;28;20128;-65
2022/03/25 05:46:55;;;;;;;20.48;13.60;;;4.80;99.90;;;;;;5001926;28;20049;-64
2022/03/25 05:49:22;;;;;;;23.48;15.55;;;4.80;99.90;;;;;;5000994;28;20049;-63
2022/03/25 05:51:49;;;;;;;23.85;13.23;;;4.80;99.90;;;;;;4998311;28;20153;-65
2022/03/25 05:54:15;;;;;;;23.20;14.07;;;4.90;99.90;;;;;;4997075;28;20097;-64
2022/03/25 05:56:42;;;;;;;18.77;12.73;;;4.90;99.90;;;;;;5001777;28;20049;-66
2022/03/25 05:59:09;;;;;;;22.70;12.85;;;5.00;99.90;;;;;;4998025;28;20072;-68
2022/03/25 06:01:36;;;;;;;23.63;13.32;;;5.10;99.90;;;;;;5001819;28;20049;-64
2022/03/25 06:04:03;;;;;;;21.02;12.32;;;5.10;99.90;;;;;;5003077;28;20057;-66
2022/03/25 06:06:30;;;;;;;22.25;12.55;;;5.10;99.90;;;;;;5002049;28;20513;-69
2022/03/25 06:08:57;;;;;;;20.42;14.30;;;5.20;99.90;;;;;;5002841;28;20056;-63
2022/03/25 06:11:24;;;;;;;19.95;13.10;;;5.20;99.90;;;;;;5000614;28;20095;-64
2022/03/25 06:13:52;;;;;;;22.52;14.82;;;5.20;99.90;;;;;;5002110;28;20136;-67
2022/03/25 06:16:19;;;;;;;21.88;13.38;;;5.20;99.90;;;;;;5017391;28;20074;-64
2022/03/25 06:18:46;;;;;;;22.65;12.57;;;5.20;99.90;;;;;;4997354;28;20049;-64
2022/03/25 06:21:13;;;;;;;20.48;14.80;;;5.30;99.90;;;;;;4999269;28;20042;-68
2022/03/25 06:23:40;;;;;;;21.95;12.32;;;5.30;99.90;;;;;;4998853;28;20232;-65
2022/03/25 06:26:07;;;;;;;21.17;12.70;;;5.30;99.90;;;;;;4998695;28;20116;-64
2022/03/25 06:28:35;;;;;;;18.27;13.70;;;5.30;99.90;;;;;;5004864;28;20062;-68
2022/03/25 06:31:02;;;;;;;18.05;13.55;;;5.40;99.90;;;;;;5003653;28;20078;-64
2022/03/25 06:33:29;;;;;;;18.95;13.38;;;5.40;99.90;;;;;;4998696;28;20137;-64
2022/03/25 06:35:56;;;;;;;21.08;13.05;;;5.40;99.90;;;;;;4994912;28;20088;-66
2022/03/25 06:38:23;;;;;;;18.30;13.38;;;5.50;99.90;;;;;;4995316;28;20083;-65
2022/03/25 06:40:53;;;;;;;28.63;14.93;;;5.50;99.90;;;;;;5001483;28;20086;-64
2022/03/25 06:43:19;;;;;;;21.02;12.98;;;5.50;99.90;;;;;;4996349;28;20107;-64
2022/03/25 06:45:46;;;;;;;26.42;13.90;;;5.60;99.90;;;;;;5003931;28;20085;-64
2022/03/25 06:48:13;;;;;;;26.35;15.77;;;5.60;99.90;;;;;;5001233;28;20148;-63
2022/03/25 06:50:41;;;;;;;27.17;13.48;;;5.60;99.90;;;;;;5002605;28;20053;-67
2022/03/25 06:53:09;;;;;;;22.13;11.65;;;5.70;99.90;;;;;;5000409;28;20148;-67
2022/03/25 06:55:36;;;;;;;21.35;14.05;;;5.70;99.90;;;;;;5005321;28;20054;-64
2022/03/25 06:58:03;;;;;;;19.85;14.30;;;5.70;99.90;;;;;;5000881;28;20045;-68
2022/03/25 07:00:32;;;;;;;29.75;15.05;;;5.70;99.90;;;;;;5002850;28;20684;-65
2022/03/25 07:02:59;;;;;;;24.70;16.42;;;5.80;99.90;;;;;;5002429;28;20049;-66
2022/03/25 07:05:27;;;;;;;21.63;15.18;;;5.90;99.90;;;;;;5002013;28;20049;-66
2022/03/25 07:07:54;;;;;;;26.35;12.93;;;5.90;99.90;;;;;;5002922;28;20116;-67
2022/03/25 07:10:23;;;;;;;22.58;14.23;;;6.00;99.90;;;;;;5006283;28;20133;-64
2022/03/25 07:12:51;;;;;;;22.02;14.07;;;6.10;99.90;;;;;;5004668;28;20116;-66
2022/03/25 07:15:22;;;;;;;20.20;13.30;;;6.10;99.90;;;;;;5003680;28;21477;-67
2022/03/25 07:17:52;;;;;;;27.52;13.70;;;6.20;99.90;;;;;;4998318;28;20528;-68
2022/03/25 07:20:21;;;;;;;22.85;13.15;;;6.30;99.90;;;;;;4998142;28;20074;-65
2022/03/25 07:22:50;;;;;;;22.00;15.67;;;6.30;99.90;;;;;;4996073;28;20385;-65
2022/03/25 07:25:18;;;;;;;16.80;12.77;;;6.40;99.90;;;;;;4988537;28;20395;-70
2022/03/25 07:27:47;;;;;;;22.77;13.90;;;6.40;99.90;;;;;;5000868;28;20713;-68
2022/03/25 07:30:16;;;;;;;19.92;12.48;;;6.40;99.90;;;;;;4991732;28;20116;-65
2022/03/25 07:32:43;;;;;;;17.05;13.40;;;6.30;99.90;;;;;;4994264;28;20081;-70
2022/03/25 07:35:11;;;;;;;26.95;13.98;;;6.30;99.90;;;;;;4987617;28;20113;-69
2022/03/25 07:37:39;;;;;;;26.35;13.95;;;6.30;99.90;;;;;;4998343;28;20077;-66
2022/03/25 07:40:11;;;;;;;21.13;13.48;;;6.30;99.90;;;;;;4999359;28;20536;-69
2022/03/25 07:42:39;;;;;;;24.13;13.55;;;6.40;99.90;;;;;;4998189;28;20060;-67
2022/03/25 07:45:11;;;;;;;29.92;15.13;;;6.40;99.90;;;;;;4999262;28;20042;-66
2022/03/25 07:47:45;;;;;;;21.38;13.18;;;6.50;99.90;;;;;;5002412;28;20092;-65
2022/03/25 07:50:14;;;;;;;22.80;14.38;;;6.60;99.90;;;;;;4997122;28;20088;-68
2022/03/25 07:52:41;;;;;;;23.67;13.95;;;6.60;99.90;;;;;;4998358;28;20197;-70
2022/03/25 07:55:09;;;;;;;22.63;11.77;;;6.60;99.90;;;;;;4987615;28;20136;-67
2022/03/25 07:57:38;;;;;;;19.63;14.48;;;6.70;99.90;;;;;;4998517;28;20077;-65
2022/03/25 08:00:11;;;;;;;22.60;13.32;;;6.80;99.90;;;;;;4997158;28;20046;-67
2022/03/25 08:02:43;;;;;;;22.73;15.50;;;6.90;99.90;;;;;;4998736;28;20123;-65
2022/03/25 08:05:11;;;;;;;20.60;13.52;;;7.00;99.90;;;;;;4999288;28;20054;-69
2022/03/25 08:07:52;;;;;;;41.10;13.73;;;7.10;99.90;;;;;;5000518;28;20052;-65
2022/03/25 08:10:21;;;;;;;;;;;7.10;99.90;;;;;;5004539;28;20185;-65
2022/03/25 08:12:50;;;;;;;16.77;12.20;;;7.20;99.90;;;;;;4993038;28;19983;-65
2022/03/25 08:15:18;;;;;;;31.38;14.48;;;7.30;99.90;;;;;;4999206;28;20045;-67
2022/03/25 08:17:50;;;;;;;19.20;13.13;;;7.30;99.90;;;;;;5000077;28;20352;-68
2022/03/25 08:20:36;;;;;;;14.40;11.30;;;7.50;99.90;;;;;;4994711;28;20172;-69
2022/03/25 08:23:06;;;;;;;28.88;13.18;;;7.60;99.90;;;;;;5000304;28;20095;-69
2022/03/25 08:28:19;;;;;;;24.20;13.35;;;7.70;99.90;;;;;;4995405;28;20445;-66
2022/03/25 08:30:47;;;;;;;31.85;13.52;;;7.70;99.90;;;;;;4989273;28;20141;-68
2022/03/25 08:33:15;;;;;;;19.45;12.88;;;7.70;99.90;;;;;;5000951;28;20220;-67
2022/03/25 08:35:43;;;;;;;18.38;13.77;;;7.70;99.90;;;;;;5000745;28;20139;-68
2022/03/25 08:38:10;;;;;;;18.85;13.52;;;7.70;99.90;;;;;;4998501;28;20038;-65
2022/03/25 08:40:38;;;;;;;27.15;16.77;;;7.60;99.90;;;;;;5001102;28;20054;-66
2022/03/25 08:43:26;;;;;;;23.73;14.43;;;7.60;99.90;;;;;;4998325;28;20069;-68
2022/03/25 08:45:53;;;;;;;24.88;15.05;;;7.50;99.90;;;;;;4996702;28;20149;-68
2022/03/25 08:48:20;;;;;;;20.58;12.43;;;7.50;99.90;;;;;;4992888;28;20081;-71
2022/03/25 08:50:47;;;;;;;22.00;13.77;;;7.50;99.90;;;;;;4993924;28;20050;-67
2022/03/25 08:53:16;;;;;;;33.17;14.48;;;7.50;99.90;;;;;;4991064;28;20050;-65
2022/03/25 08:55:43;;;;;;;32.67;15.98;;;7.60;99.90;;;;;;4988349;28;20104;-69
2022/03/25 08:58:10;;;;;;;18.55;13.38;;;7.70;99.90;;;;;;5001925;28;20093;-69
2022/03/25 09:00:37;;;;;;;29.48;14.25;;;7.90;99.90;;;;;;5001190;28;20053;-66
2022/03/25 09:03:05;;;;;;;32.30;14.93;;;8.00;99.90;;;;;;5000285;28;20054;-70
2022/03/25 09:05:33;;;;;;;20.05;14.13;;;8.10;99.90;;;;;;4997769;28;20038;-69
2022/03/25 09:07:59;;;;;;;25.63;13.82;;;8.20;99.90;;;;;;5000823;28;20495;-67
2022/03/25 09:10:26;;;;;;;22.83;14.02;;;8.40;99.90;;;;;;5001860;28;20585;-71
2022/03/25 09:12:53;;;;;;;34.05;14.07;;;8.50;99.90;;;;;;5009058;28;20171;-67
2022/03/25 09:15:22;;;;;;;16.15;11.82;;;8.50;99.90;;;;;;4998979;28;20069;-67
2022/03/25 09:17:49;;;;;;;27.98;13.60;;;8.50;99.90;;;;;;4991511;28;20119;-69
2022/03/25 09:20:17;;;;;;;27.08;14.25;;;8.40;99.90;;;;;;5000286;28;20513;-69
2022/03/25 09:22:44;;;;;;;24.35;14.40;;;8.40;99.90;;;;;;5000856;28;20054;-67
2022/03/25 09:25:12;;;;;;;20.83;13.57;;;8.40;99.90;;;;;;4994070;28;20049;-68
2022/03/25 09:27:40;;;;;;;29.30;14.70;;;8.50;99.90;;;;;;5001358;28;20668;-67
2022/03/25 09:30:09;;;;;;;18.95;11.95;;;8.60;99.90;;;;;;5000603;28;20168;-67
2022/03/25 09:32:56;;;;;;;19.23;13.20;;;8.80;99.90;;;;;;4996540;28;20050;-70
2022/03/25 09:35:23;;;;;;;22.48;13.15;;;9.00;99.90;;;;;;5008481;28;20148;-69
2022/03/25 09:37:52;;;;;;;23.70;14.65;;;9.10;99.90;;;;;;4997369;28;20455;-70
2022/03/25 09:40:24;;;;;;;22.25;12.27;;;9.20;99.90;;;;;;5002938;28;20054;-68
2022/03/25 09:42:53;;;;;;;22.50;11.35;;;9.40;99.90;;;;;;4999329;28;20153;-65
2022/03/25 09:45:22;;;;;;;26.58;13.00;;;9.50;99.90;;;;;;4994241;28;20506;-65
2022/03/25 09:47:49;;;;;;;22.70;10.85;;;9.60;99.90;;;;;;5001456;28;20054;-66
2022/03/25 09:50:21;;;;;;;26.83;14.20;;;9.70;99.90;;;;;;5001553;28;20590;-69
2022/03/25 09:52:49;;;;;;;24.83;12.02;;;9.70;99.90;;;;;;5001962;28;20519;-65
2022/03/25 09:55:41;;;;;;;23.50;13.48;;;9.80;99.90;;;;;;4999271;28;20049;-71
2022/03/25 09:58:20;;;;;;;20.45;11.73;;;10.00;99.90;;;;;;5011627;28;20050;-71
2022/03/25 10:00:51;;;;;;;46.75;14.70;;;10.10;99.90;;;;;;4998291;28;20050;-64
2022/03/25 10:03:41;;;;;;;25.50;12.55;;;10.30;99.90;;;;;;4996372;28;20046;-66
2022/03/25 10:06:12;;;;;;;28.33;13.30;;;10.40;99.90;;;;;;4995568;28;20502;-71
2022/03/25 10:08:53;;;;;;;36.72;12.15;;;10.60;99.90;;;;;;4998182;28;20131;-69
2022/03/25 10:11:21;;;;;;;19.33;10.57;;;10.60;99.90;;;;;;4993480;28;20065;-67
2022/03/25 10:14:09;;;;;;;21.30;13.45;;;10.70;99.90;;;;;;4995838;28;20116;-66
2022/03/25 10:16:35;;;;;;;22.98;13.85;;;10.80;99.90;;;;;;4998211;28;20058;-65
2022/03/25 10:19:03;;;;;;;44.80;16.08;;;10.80;99.90;;;;;;4997344;28;20145;-65
2022/03/25 10:22:08;;;;;;;24.88;11.77;;;10.90;99.90;;;;;;4998050;28;20054;-65
2022/03/25 10:24:40;;;;;;;28.35;13.15;;;11.10;99.90;;;;;;5010403;28;20148;-65
2022/03/25 10:27:20;;;;;;;19.95;11.88;;;11.10;99.90;;;;;;4997586;28;20104;-69
2022/03/25 10:29:50;;;;;;;26.38;11.50;;;11.10;99.90;;;;;;5019809;28;20068;-70
2022/03/25 10:32:24;;;;;;;23.67;11.85;;;11.00;99.90;;;;;;5004402;28;20400;-67
2022/03/25 10:35:03;;;;;;;21.42;11.88;;;11.00;99.90;;;;;;5009042;28;20151;-66
2022/03/25 10:37:30;;;;;;;34.05;13.43;;;11.00;99.90;;;;;;4996625;28;20385;-65
2022/03/25 10:39:57;;;;;;;26.13;13.43;;;10.90;99.90;;;;;;5005050;28;20139;-66
2022/03/25 10:42:24;;;;;;;21.08;12.70;;;10.90;99.90;;;;;;4993270;28;20057;-65
2022/03/25 10:44:56;;;;;;;20.25;10.85;;;10.90;99.90;;;;;;5005697;28;20053;-66
2022/03/25 10:47:25;;;;;;;30.90;11.75;;;11.10;99.90;;;;;;5003428;28;20605;-65
2022/03/25 10:49:53;;;;;;;28.23;13.48;;;11.20;99.90;;;;;;5005875;28;20050;-65
2022/03/25 10:52:23;;;;;;;42.25;13.35;;;11.20;99.90;;;;;;5003760;28;20415;-65
2022/03/25 10:55:23;;;;;;;27.67;11.48;;;11.40;99.90;;;;;;5005655;28;20054;-67
2022/03/25 10:57:59;;;;;;;22.88;11.23;;;11.50;99.90;;;;;;4994706;28;20049;-65
2022/03/25 11:00:27;;;;;;;30.73;11.73;;;11.70;99.90;;;;;;5013205;28;20068;-65
2022/03/25 11:02:54;;;;;;;37.50;13.07;;;11.70;99.90;;;;;;4997429;28;20139;-66
2022/03/25 11:05:22;;;;;;;36.42;13.45;;;11.90;99.90;;;;;;5003452;28;20041;-65
2022/03/25 11:07:50;;;;;;;23.30;13.05;;;11.80;99.90;;;;;;5005591;28;20516;-66
2022/03/25 11:10:18;;;;;;;21.60;11.90;;;11.60;99.90;;;;;;5004871;28;20049;-68
2022/03/25 11:12:49;;;;;;;33.03;12.95;;;11.50;99.90;;;;;;5005401;28;20161;-66
2022/03/25 11:15:18;;;;;;;21.35;12.68;;;11.40;99.90;;;;;;5000519;28;20419;-66
2022/03/25 11:17:45;;;;;;;18.10;13.55;;;11.30;99.90;;;;;;5005151;28;20145;-65
2022/03/25 11:20:18;;;;;;;27.13;13.43;;;11.20;99.90;;;;;;5004136;28;20149;-65
2022/03/25 11:23:00;;;;;;;31.10;14.52;;;11.20;99.90;;;;;;5005439;28;20069;-66
2022/03/25 11:25:31;;;;;;;27.25;12.60;;;11.20;99.90;;;;;;5002823;28;20041;-69
2022/03/25 11:28:05;;;;;;;23.88;11.45;;;11.20;99.90;;;;;;5004930;28;20618;-65
2022/03/25 11:30:35;;;;;;;24.33;13.43;;;11.20;99.90;;;;;;4997994;28;20153;-65
2022/03/25 11:33:03;;;;;;;41.37;14.97;;;11.30;99.90;;;;;;5004061;28;20420;-65
2022/03/25 11:35:32;;;;;;;29.48;14.68;;;11.20;99.90;;;;;;5009727;28;20133;-68
2022/03/25 11:38:15;;;;;;;20.33;12.18;;;11.30;99.90;;;;;;5004824;28;20058;-65
2022/03/25 11:40:45;;;;;;;25.90;15.65;;;11.40;99.90;;;;;;5003053;28;20141;-65
2022/03/25 11:43:28;;;;;;;21.55;12.32;;;11.30;99.90;;;;;;5002160;28;20038;-64
2022/03/25 11:46:06;;;;;;;26.95;14.00;;;11.40;99.90;;;;;;5004381;28;20642;-66
2022/03/25 11:48:39;;;;;;;22.77;12.55;;;11.20;99.90;;;;;;5002247;28;20147;-65
2022/03/25 11:51:25;;;;;;;22.75;12.90;;;11.30;99.90;;;;;;5001503;28;20046;-65
2022/03/25 11:53:52;;;;;;;49.70;15.23;;;11.30;99.90;;;;;;4998246;28;20096;-65
2022/03/25 11:56:19;;;;;;;26.30;12.10;;;11.30;99.90;;;;;;5000918;28;20157;-69
2022/03/25 11:58:55;;;;;;;26.48;12.32;;;11.30;99.90;;;;;;5010637;28;20056;-66
2022/03/25 12:01:23;;;;;;;26.73;13.68;;;11.40;99.90;;;;;;4997441;28;20050;-66
2022/03/25 12:03:55;;;;;;;26.10;13.93;;;11.40;99.90;;;;;;4998829;28;20062;-66
2022/03/25 12:06:24;;;;;;;28.98;15.20;;;11.50;99.90;;;;;;4993320;28;20052;-69
2022/03/25 12:09:02;;;;;;;25.10;14.65;;;11.40;99.90;;;;;;5003700;28;20141;-67
2022/03/25 12:11:47;;;;;;;31.05;14.07;;;11.40;99.90;;;;;;4994134;28;20768;-64
2022/03/25 12:14:14;;;;;;;22.63;12.68;;;11.40;99.90;;;;;;5007311;28;20782;-66
2022/03/25 12:16:47;;;;;;;25.52;13.82;;;11.40;99.90;;;;;;5003025;28;20144;-66
2022/03/25 12:19:27;;;;;;;22.70;14.45;;;11.40;99.90;;;;;;4991255;28;20042;-65
2022/03/25 12:21:54;;;;;;;28.17;14.27;;;11.40;99.90;;;;;;4999513;28;20066;-65
2022/03/25 12:24:22;;;;;;;21.85;15.07;;;11.40;99.90;;;;;;5003857;28;20058;-66
2022/03/25 12:27:02;;;;;;;24.35;12.77;;;11.30;99.90;;;;;;4994859;28;20081;-65
2022/03/25 12:29:31;;;;;;;24.40;13.25;;;11.30;99.90;;;;;;4995503;28;20054;-66
2022/03/25 12:32:05;;;;;;;25.48;13.45;;;11.40;99.90;;;;;;5002835;28;20389;-67
2022/03/25 12:34:41;;;;;;;34.13;14.18;;;11.40;99.90;;;;;;5006093;28;20069;-64
2022/03/25 12:37:19;;;;;;;22.45;16.10;;;11.40;99.90;;;;;;5003281;28;20144;-67
2022/03/25 12:39:46;;;;;;;18.20;11.27;;;11.40;99.90;;;;;;4997224;28;20061;-67
2022/03/25 12:42:13;;;;;;;25.55;14.82;;;11.40;99.90;;;;;;4992577;28;20071;-65
2022/03/25 12:44:40;;;;;;;27.73;12.82;;;11.40;99.90;;;;;;4996308;28;20447;-67
2022/03/25 12:47:11;;;;;;;25.77;14.07;;;11.40;99.90;;;;;;5001430;28;20050;-66
2022/03/25 12:49:38;;;;;;;22.63;12.13;;;11.40;99.90;;;;;;5004143;28;20065;-67
2022/03/25 12:52:05;;;;;;;27.90;13.23;;;11.50;99.90;;;;;;5002561;28;20100;-66